Fletcher, NC (28732)

2:58 PM EDT on September 01, 2014 (GMT -0400)
SouthChase | Change Station
CLOSE
Current Station
Personal Weather Station
Location: Fletcher, NC
Elevation: 2126 ft
Nearby Weather Stations

Elev 2126 ft 35.43 °N, 82.50 °W | Updated 13 minutes ago

Partly Cloudy
Partly Cloudy
98.6 °F
Feels Like 100 °F
N
3.7
Wind Variable Wind from SSW

Today
High -- | Low -- °F
--% Chance of Precip.
Yesterday
High -- | Low -- °F
Precip. -- in
7:02 AM 7:57 PM
Waxing Crescent, 43% visible
Pressure 30.09 in
Visibility 10.0 miles
Clouds Few 6000 ft
Heat Index 100 °F
Dew Point 63 °F
Humidity 31%
Rainfall 0.00 in
Snow Depth Not available.
UV 9 out of 12
Pollen 9.20 out of 12
Ozone Good
PM2.5 Good
Flu Activity Not available.
METAR KAVL 011854Z 21006KT 10SM FEW060 31/18 A3017 RMK AO2 LTG DSNT N AND NW SLP187 T03060178

More Conditions Fewer Conditions

Pressure 30.09 in
Visibility 10.0 miles
Clouds Few 6000 ft
Heat Index 100 °F
Dew Point 63 °F
Humidity 31%
Rainfall 0.00 in
Snow Depth Not available.
UV 9 out of 12
Pollen 9.20 out of 12
Ozone Good
PM2.5 Good
Flu Activity Not available.
METAR KAVL 011854Z 21006KT 10SM FEW060 31/18 A3017 RMK AO2 LTG DSNT N AND NW SLP187 T03060178

More Conditions Fewer Conditions

10-Day Weather Forecast

Almanac

Astronomy

Sep. 01, 2014 Rise Set
Actual Time 7:02 AM EDT 7:57 PM EDT
Civil Twilight 6:36 AM EDT 8:22 PM EDT
Nautical Twilight 6:05 AM EDT 8:53 PM EDT
Astronomical Twilight 5:33 AM EDT 9:25 PM EDT
Moon 1:32 PM EDT No Moon Set
Length of Visible Light 13h 46m
Length of Day
12h 54m
Tomorrow will be 2m 8s shorter.
Waxing Crescent, 43% of the Moon is Illuminated
Today
Waxing Crescent
Sep 2
First Quarter
Sep 8
Full
Sep 15
Last Quarter
Sep 24
New

Today's Extremes

State Highs State Lows

Community

WunderPhotos

Upload Photos

1,749,359 photos uploaded!

Nearby

Air Quality

  Air Quality AQ Index Pollutant
Yesterday Good
PM2.5
Yesterday Good
OZONE
Current Good
PM2.5
Current Good
OZONE
Monday Good
OZONE
Monday Good
PM2.5
Tuesday Good
PM2.5
Tuesday Good
OZONE
Wednesday Good
PM2.5
Wednesday Good
OZONE
Thursday Good
PM2.5
Thursday Good
OZONE

Snow Depth

Station Depth Elevation
No new snow has been reported.

Earthquake Activity

City Distance Mag. Time & Date
No recent earthquake activity has been reported nearby.
Minimum magnitude displayed is 2.5.

Coastal Water Temperatures

Place Temperature
No Stations Reporting

Nearby Weather Stations